sensor_id;sensor_type;location;lat;lon;timestamp;P1;durP1;ratioP1;P2;durP2;ratioP2
60610;SDS011;46439;51.164;13.572;2023-07-02T00:00:45;2.60;;;1.50;;
60610;SDS011;46439;51.164;13.572;2023-07-02T00:03:13;1.50;;;1.40;;
60610;SDS011;46439;51.164;13.572;2023-07-02T00:05:42;5.20;;;1.60;;
60610;SDS011;46439;51.164;13.572;2023-07-02T00:08:10;2.10;;;1.60;;
60610;SDS011;46439;51.164;13.572;2023-07-02T00:10:39;1.80;;;1.70;;
60610;SDS011;46439;51.164;13.572;2023-07-02T00:13:07;1.60;;;1.50;;
60610;SDS011;46439;51.164;13.572;2023-07-02T00:15:36;2.70;;;1.70;;
60610;SDS011;46439;51.164;13.572;2023-07-02T00:18:04;2.10;;;1.70;;
60610;SDS011;46439;51.164;13.572;2023-07-02T00:20:33;2.50;;;1.70;;
60610;SDS011;46439;51.164;13.572;2023-07-02T00:23:04;4.70;;;1.70;;
60610;SDS011;46439;51.164;13.572;2023-07-02T00:25:35;1.60;;;1.50;;
60610;SDS011;46439;51.164;13.572;2023-07-02T00:28:04;2.40;;;1.60;;
60610;SDS011;46439;51.164;13.572;2023-07-02T00:30:33;1.60;;;1.50;;
60610;SDS011;46439;51.164;13.572;2023-07-02T00:33:01;2.70;;;1.50;;
60610;SDS011;46439;51.164;13.572;2023-07-02T00:35:30;2.50;;;1.50;;
60610;SDS011;46439;51.164;13.572;2023-07-02T00:37:58;2.40;;;1.40;;
60610;SDS011;46439;51.164;13.572;2023-07-02T00:40:28;2.30;;;1.30;;
60610;SDS011;46439;51.164;13.572;2023-07-02T00:42:56;1.50;;;1.30;;
60610;SDS011;46439;51.164;13.572;2023-07-02T00:45:25;1.40;;;1.30;;
60610;SDS011;46439;51.164;13.572;2023-07-02T00:47:55;1.50;;;1.30;;
60610;SDS011;46439;51.164;13.572;2023-07-02T00:50:24;1.40;;;1.30;;
60610;SDS011;46439;51.164;13.572;2023-07-02T00:52:54;2.00;;;1.30;;
60610;SDS011;46439;51.164;13.572;2023-07-02T00:55:24;1.50;;;1.30;;
60610;SDS011;46439;51.164;13.572;2023-07-02T00:57:52;2.50;;;1.30;;
60610;SDS011;46439;51.164;13.572;2023-07-02T01:00:23;1.30;;;1.20;;
60610;SDS011;46439;51.164;13.572;2023-07-02T01:02:55;1.80;;;1.10;;
60610;SDS011;46439;51.164;13.572;2023-07-02T01:05:25;1.70;;;1.30;;
60610;SDS011;46439;51.164;13.572;2023-07-02T01:08:02;1.00;;;1.00;;
60610;SDS011;46439;51.164;13.572;2023-07-02T01:10:30;1.40;;;1.30;;
60610;SDS011;46439;51.164;13.572;2023-07-02T01:13:03;1.20;;;1.20;;
60610;SDS011;46439;51.164;13.572;2023-07-02T01:15:35;1.40;;;1.20;;
60610;SDS011;46439;51.164;13.572;2023-07-02T01:18:05;1.30;;;1.20;;
60610;SDS011;46439;51.164;13.572;2023-07-02T01:20:34;1.60;;;1.20;;
60610;SDS011;46439;51.164;13.572;2023-07-02T01:23:03;4.80;;;1.30;;
60610;SDS011;46439;51.164;13.572;2023-07-02T01:25:32;1.40;;;1.20;;
60610;SDS011;46439;51.164;13.572;2023-07-02T01:28:02;1.90;;;1.20;;
60610;SDS011;46439;51.164;13.572;2023-07-02T01:30:31;1.30;;;1.20;;
60610;SDS011;46439;51.164;13.572;2023-07-02T01:33:00;1.30;;;1.20;;
60610;SDS011;46439;51.164;13.572;2023-07-02T01:35:29;1.30;;;1.20;;
60610;SDS011;46439;51.164;13.572;2023-07-02T01:37:58;1.30;;;1.20;;
60610;SDS011;46439;51.164;13.572;2023-07-02T01:40:26;1.40;;;1.30;;
60610;SDS011;46439;51.164;13.572;2023-07-02T01:42:55;1.20;;;1.00;;
60610;SDS011;46439;51.164;13.572;2023-07-02T01:45:23;1.30;;;1.10;;
60610;SDS011;46439;51.164;13.572;2023-07-02T01:47:52;2.30;;;1.20;;
60610;SDS011;46439;51.164;13.572;2023-07-02T01:50:20;1.40;;;1.10;;
60610;SDS011;46439;51.164;13.572;2023-07-02T01:52:49;1.40;;;1.10;;
60610;SDS011;46439;51.164;13.572;2023-07-02T01:55:17;2.10;;;1.20;;
60610;SDS011;46439;51.164;13.572;2023-07-02T01:57:46;1.90;;;1.20;;
60610;SDS011;46439;51.164;13.572;2023-07-02T02:00:15;1.50;;;1.20;;
60610;SDS011;46439;51.164;13.572;2023-07-02T02:02:44;1.90;;;1.20;;
60610;SDS011;46439;51.164;13.572;2023-07-02T02:05:13;1.10;;;1.10;;
60610;SDS011;46439;51.164;13.572;2023-07-02T02:07:41;1.70;;;1.30;;
60610;SDS011;46439;51.164;13.572;2023-07-02T02:10:10;1.00;;;1.00;;
60610;SDS011;46439;51.164;13.572;2023-07-02T02:12:41;1.40;;;1.30;;
60610;SDS011;46439;51.164;13.572;2023-07-02T02:15:10;1.20;;;1.10;;
60610;SDS011;46439;51.164;13.572;2023-07-02T02:17:41;1.70;;;1.10;;
60610;SDS011;46439;51.164;13.572;2023-07-02T02:20:10;1.30;;;1.20;;
60610;SDS011;46439;51.164;13.572;2023-07-02T02:22:39;2.00;;;1.30;;
60610;SDS011;46439;51.164;13.572;2023-07-02T02:25:08;2.50;;;1.20;;
60610;SDS011;46439;51.164;13.572;2023-07-02T02:27:37;2.10;;;1.10;;
60610;SDS011;46439;51.164;13.572;2023-07-02T02:30:07;1.30;;;1.20;;
60610;SDS011;46439;51.164;13.572;2023-07-02T02:32:36;1.10;;;1.10;;
60610;SDS011;46439;51.164;13.572;2023-07-02T02:35:05;0.80;;;0.80;;
60610;SDS011;46439;51.164;13.572;2023-07-02T02:37:36;1.80;;;1.20;;
60610;SDS011;46439;51.164;13.572;2023-07-02T02:40:09;2.50;;;1.10;;
60610;SDS011;46439;51.164;13.572;2023-07-02T02:42:39;2.50;;;1.30;;
60610;SDS011;46439;51.164;13.572;2023-07-02T02:45:09;1.10;;;1.10;;
60610;SDS011;46439;51.164;13.572;2023-07-02T02:47:37;1.30;;;1.20;;
60610;SDS011;46439;51.164;13.572;2023-07-02T02:50:07;1.30;;;1.00;;
60610;SDS011;46439;51.164;13.572;2023-07-02T02:52:39;1.80;;;1.30;;
60610;SDS011;46439;51.164;13.572;2023-07-02T02:55:09;2.40;;;1.50;;
60610;SDS011;46439;51.164;13.572;2023-07-02T02:57:42;1.30;;;1.20;;
60610;SDS011;46439;51.164;13.572;2023-07-02T03:00:13;1.30;;;1.20;;
60610;SDS011;46439;51.164;13.572;2023-07-02T03:02:43;1.70;;;1.10;;
60610;SDS011;46439;51.164;13.572;2023-07-02T03:05:12;1.20;;;1.10;;
60610;SDS011;46439;51.164;13.572;2023-07-02T03:07:43;1.70;;;1.10;;
60610;SDS011;46439;51.164;13.572;2023-07-02T03:10:12;1.10;;;1.10;;
60610;SDS011;46439;51.164;13.572;2023-07-02T03:12:42;2.30;;;1.10;;
60610;SDS011;46439;51.164;13.572;2023-07-02T03:15:16;1.20;;;1.20;;
60610;SDS011;46439;51.164;13.572;2023-07-02T03:17:45;1.60;;;1.20;;
60610;SDS011;46439;51.164;13.572;2023-07-02T03:20:21;2.30;;;0.90;;
60610;SDS011;46439;51.164;13.572;2023-07-02T03:22:58;2.10;;;1.00;;
60610;SDS011;46439;51.164;13.572;2023-07-02T03:25:27;1.10;;;1.00;;
60610;SDS011;46439;51.164;13.572;2023-07-02T03:27:55;4.10;;;1.00;;
60610;SDS011;46439;51.164;13.572;2023-07-02T03:30:24;3.30;;;1.10;;
60610;SDS011;46439;51.164;13.572;2023-07-02T03:32:52;3.60;;;1.20;;
60610;SDS011;46439;51.164;13.572;2023-07-02T03:35:21;2.10;;;1.80;;
60610;SDS011;46439;51.164;13.572;2023-07-02T03:37:49;2.40;;;1.40;;
60610;SDS011;46439;51.164;13.572;2023-07-02T03:40:18;3.00;;;1.50;;
60610;SDS011;46439;51.164;13.572;2023-07-02T03:42:46;2.60;;;1.30;;
60610;SDS011;46439;51.164;13.572;2023-07-02T03:45:15;2.00;;;1.30;;
60610;SDS011;46439;51.164;13.572;2023-07-02T03:47:44;2.50;;;1.50;;
60610;SDS011;46439;51.164;13.572;2023-07-02T03:50:12;2.60;;;1.30;;
60610;SDS011;46439;51.164;13.572;2023-07-02T03:52:41;1.20;;;1.10;;
60610;SDS011;46439;51.164;13.572;2023-07-02T03:55:09;1.20;;;1.10;;
60610;SDS011;46439;51.164;13.572;2023-07-02T03:57:38;3.40;;;1.50;;
60610;SDS011;46439;51.164;13.572;2023-07-02T04:00:09;2.30;;;1.20;;
60610;SDS011;46439;51.164;13.572;2023-07-02T04:02:38;2.10;;;1.50;;
60610;SDS011;46439;51.164;13.572;2023-07-02T04:05:07;1.50;;;1.20;;
60610;SDS011;46439;51.164;13.572;2023-07-02T04:07:36;1.50;;;1.40;;
60610;SDS011;46439;51.164;13.572;2023-07-02T04:10:05;3.70;;;1.50;;
60610;SDS011;46439;51.164;13.572;2023-07-02T04:12:35;1.80;;;1.50;;
60610;SDS011;46439;51.164;13.572;2023-07-02T04:15:04;1.50;;;1.40;;
60610;SDS011;46439;51.164;13.572;2023-07-02T04:17:34;3.20;;;1.20;;
60610;SDS011;46439;51.164;13.572;2023-07-02T04:20:03;2.10;;;1.50;;
60610;SDS011;46439;51.164;13.572;2023-07-02T04:22:34;1.70;;;1.30;;
60610;SDS011;46439;51.164;13.572;2023-07-02T04:25:03;3.50;;;1.50;;
60610;SDS011;46439;51.164;13.572;2023-07-02T04:27:32;2.00;;;1.70;;
60610;SDS011;46439;51.164;13.572;2023-07-02T04:30:01;2.60;;;1.60;;
60610;SDS011;46439;51.164;13.572;2023-07-02T04:32:30;2.70;;;1.30;;
60610;SDS011;46439;51.164;13.572;2023-07-02T04:34:58;3.70;;;1.30;;
60610;SDS011;46439;51.164;13.572;2023-07-02T04:37:27;4.30;;;1.40;;
60610;SDS011;46439;51.164;13.572;2023-07-02T04:39:55;1.50;;;1.40;;
60610;SDS011;46439;51.164;13.572;2023-07-02T04:42:24;1.80;;;1.50;;
60610;SDS011;46439;51.164;13.572;2023-07-02T04:44:58;1.90;;;1.60;;
60610;SDS011;46439;51.164;13.572;2023-07-02T04:47:29;1.50;;;1.30;;
60610;SDS011;46439;51.164;13.572;2023-07-02T04:49:58;1.50;;;1.40;;
60610;SDS011;46439;51.164;13.572;2023-07-02T04:52:27;1.50;;;1.30;;
60610;SDS011;46439;51.164;13.572;2023-07-02T04:54:56;2.70;;;1.30;;
60610;SDS011;46439;51.164;13.572;2023-07-02T04:57:24;2.60;;;1.20;;
60610;SDS011;46439;51.164;13.572;2023-07-02T04:59:54;2.10;;;1.30;;
60610;SDS011;46439;51.164;13.572;2023-07-02T05:02:23;4.80;;;1.20;;
60610;SDS011;46439;51.164;13.572;2023-07-02T05:04:51;3.20;;;1.30;;
60610;SDS011;46439;51.164;13.572;2023-07-02T05:07:20;2.20;;;1.30;;
60610;SDS011;46439;51.164;13.572;2023-07-02T05:09:49;1.40;;;1.20;;
60610;SDS011;46439;51.164;13.572;2023-07-02T05:12:19;3.50;;;1.30;;
60610;SDS011;46439;51.164;13.572;2023-07-02T05:14:48;1.40;;;1.20;;
60610;SDS011;46439;51.164;13.572;2023-07-02T05:17:17;3.70;;;1.30;;
60610;SDS011;46439;51.164;13.572;2023-07-02T05:19:45;3.10;;;1.30;;
60610;SDS011;46439;51.164;13.572;2023-07-02T05:22:14;2.80;;;1.10;;
60610;SDS011;46439;51.164;13.572;2023-07-02T05:24:43;3.10;;;1.20;;
60610;SDS011;46439;51.164;13.572;2023-07-02T05:27:13;2.20;;;1.30;;
60610;SDS011;46439;51.164;13.572;2023-07-02T05:29:42;2.40;;;1.20;;
60610;SDS011;46439;51.164;13.572;2023-07-02T05:32:13;2.30;;;1.10;;
60610;SDS011;46439;51.164;13.572;2023-07-02T05:34:53;1.70;;;1.20;;
60610;SDS011;46439;51.164;13.572;2023-07-02T05:37:22;1.90;;;1.30;;
60610;SDS011;46439;51.164;13.572;2023-07-02T05:39:53;1.30;;;1.10;;
60610;SDS011;46439;51.164;13.572;2023-07-02T05:42:23;2.50;;;1.50;;
60610;SDS011;46439;51.164;13.572;2023-07-02T05:44:52;1.20;;;1.00;;
60610;SDS011;46439;51.164;13.572;2023-07-02T05:47:21;1.00;;;1.00;;
60610;SDS011;46439;51.164;13.572;2023-07-02T05:49:50;4.40;;;1.50;;
60610;SDS011;46439;51.164;13.572;2023-07-02T05:52:18;1.70;;;1.20;;
60610;SDS011;46439;51.164;13.572;2023-07-02T05:54:49;1.30;;;1.20;;
60610;SDS011;46439;51.164;13.572;2023-07-02T05:57:18;1.70;;;1.30;;
60610;SDS011;46439;51.164;13.572;2023-07-02T05:59:46;1.60;;;1.20;;
60610;SDS011;46439;51.164;13.572;2023-07-02T06:02:15;2.20;;;1.30;;
60610;SDS011;46439;51.164;13.572;2023-07-02T06:04:43;2.80;;;1.30;;
60610;SDS011;46439;51.164;13.572;2023-07-02T06:07:12;1.70;;;1.20;;
60610;SDS011;46439;51.164;13.572;2023-07-02T06:09:41;2.80;;;1.20;;
60610;SDS011;46439;51.164;13.572;2023-07-02T06:12:10;2.10;;;1.10;;
60610;SDS011;46439;51.164;13.572;2023-07-02T06:14:38;2.00;;;1.20;;
60610;SDS011;46439;51.164;13.572;2023-07-02T06:17:07;2.00;;;1.20;;
60610;SDS011;46439;51.164;13.572;2023-07-02T06:19:36;1.60;;;1.20;;
60610;SDS011;46439;51.164;13.572;2023-07-02T06:22:05;1.70;;;1.30;;
60610;SDS011;46439;51.164;13.572;2023-07-02T06:24:36;1.70;;;1.20;;
60610;SDS011;46439;51.164;13.572;2023-07-02T06:27:05;2.90;;;1.30;;
60610;SDS011;46439;51.164;13.572;2023-07-02T06:29:34;3.70;;;1.20;;
60610;SDS011;46439;51.164;13.572;2023-07-02T06:32:04;2.40;;;1.40;;
60610;SDS011;46439;51.164;13.572;2023-07-02T06:34:33;2.60;;;1.30;;
60610;SDS011;46439;51.164;13.572;2023-07-02T06:37:05;1.60;;;1.20;;
60610;SDS011;46439;51.164;13.572;2023-07-02T06:39:33;2.30;;;1.40;;
60610;SDS011;46439;51.164;13.572;2023-07-02T06:42:02;1.20;;;1.00;;
60610;SDS011;46439;51.164;13.572;2023-07-02T06:44:31;5.10;;;1.40;;
60610;SDS011;46439;51.164;13.572;2023-07-02T06:47:00;1.80;;;1.40;;
60610;SDS011;46439;51.164;13.572;2023-07-02T06:49:29;2.80;;;1.20;;
60610;SDS011;46439;51.164;13.572;2023-07-02T06:51:57;1.80;;;1.20;;
60610;SDS011;46439;51.164;13.572;2023-07-02T06:54:27;2.80;;;1.40;;
60610;SDS011;46439;51.164;13.572;2023-07-02T06:56:56;2.40;;;1.40;;
60610;SDS011;46439;51.164;13.572;2023-07-02T06:59:24;1.40;;;1.20;;
60610;SDS011;46439;51.164;13.572;2023-07-02T07:01:53;1.90;;;1.20;;
60610;SDS011;46439;51.164;13.572;2023-07-02T07:04:22;1.40;;;1.30;;
60610;SDS011;46439;51.164;13.572;2023-07-02T07:06:50;1.80;;;1.20;;
60610;SDS011;46439;51.164;13.572;2023-07-02T07:09:20;2.80;;;1.50;;
60610;SDS011;46439;51.164;13.572;2023-07-02T07:11:49;4.20;;;1.40;;
60610;SDS011;46439;51.164;13.572;2023-07-02T07:14:17;2.70;;;1.40;;
60610;SDS011;46439;51.164;13.572;2023-07-02T07:16:46;1.50;;;1.40;;
60610;SDS011;46439;51.164;13.572;2023-07-02T07:19:14;4.30;;;1.40;;
60610;SDS011;46439;51.164;13.572;2023-07-02T07:21:43;1.50;;;1.40;;
60610;SDS011;46439;51.164;13.572;2023-07-02T07:24:11;1.70;;;1.50;;
60610;SDS011;46439;51.164;13.572;2023-07-02T07:26:39;1.60;;;1.40;;
60610;SDS011;46439;51.164;13.572;2023-07-02T07:29:08;3.40;;;1.50;;
60610;SDS011;46439;51.164;13.572;2023-07-02T07:31:37;2.00;;;1.40;;
60610;SDS011;46439;51.164;13.572;2023-07-02T07:34:05;2.50;;;1.50;;
60610;SDS011;46439;51.164;13.572;2023-07-02T07:36:34;1.90;;;1.20;;
60610;SDS011;46439;51.164;13.572;2023-07-02T07:39:03;2.10;;;1.50;;
60610;SDS011;46439;51.164;13.572;2023-07-02T07:41:31;2.40;;;1.40;;
60610;SDS011;46439;51.164;13.572;2023-07-02T07:44:00;2.20;;;1.30;;
60610;SDS011;46439;51.164;13.572;2023-07-02T07:46:30;1.50;;;1.30;;
60610;SDS011;46439;51.164;13.572;2023-07-02T07:49:01;2.70;;;1.30;;
60610;SDS011;46439;51.164;13.572;2023-07-02T07:51:30;1.80;;;1.50;;
60610;SDS011;46439;51.164;13.572;2023-07-02T07:53:59;2.60;;;1.40;;
60610;SDS011;46439;51.164;13.572;2023-07-02T07:56:28;3.20;;;1.40;;
60610;SDS011;46439;51.164;13.572;2023-07-02T07:58:57;1.90;;;1.50;;
60610;SDS011;46439;51.164;13.572;2023-07-02T08:01:26;1.50;;;1.40;;
60610;SDS011;46439;51.164;13.572;2023-07-02T08:03:55;1.50;;;1.40;;
60610;SDS011;46439;51.164;13.572;2023-07-02T08:06:24;3.90;;;1.50;;
60610;SDS011;46439;51.164;13.572;2023-07-02T08:08:52;1.50;;;1.30;;
60610;SDS011;46439;51.164;13.572;2023-07-02T08:11:22;2.00;;;1.40;;
60610;SDS011;46439;51.164;13.572;2023-07-02T08:13:56;1.60;;;1.40;;
60610;SDS011;46439;51.164;13.572;2023-07-02T08:16:24;1.60;;;1.50;;
60610;SDS011;46439;51.164;13.572;2023-07-02T08:18:53;2.80;;;1.50;;
60610;SDS011;46439;51.164;13.572;2023-07-02T08:21:21;2.10;;;1.60;;
60610;SDS011;46439;51.164;13.572;2023-07-02T08:23:50;2.10;;;1.90;;
60610;SDS011;46439;51.164;13.572;2023-07-02T08:26:18;1.50;;;1.40;;
60610;SDS011;46439;51.164;13.572;2023-07-02T08:28:47;1.60;;;1.20;;
60610;SDS011;46439;51.164;13.572;2023-07-02T08:31:16;2.10;;;1.50;;
60610;SDS011;46439;51.164;13.572;2023-07-02T08:33:44;2.20;;;1.30;;
60610;SDS011;46439;51.164;13.572;2023-07-02T08:36:13;1.50;;;1.40;;
60610;SDS011;46439;51.164;13.572;2023-07-02T08:38:42;2.60;;;1.40;;
60610;SDS011;46439;51.164;13.572;2023-07-02T08:41:10;1.50;;;1.40;;
60610;SDS011;46439;51.164;13.572;2023-07-02T08:43:40;1.80;;;1.20;;
60610;SDS011;46439;51.164;13.572;2023-07-02T08:46:10;1.70;;;1.50;;
60610;SDS011;46439;51.164;13.572;2023-07-02T08:48:39;2.00;;;1.50;;
60610;SDS011;46439;51.164;13.572;2023-07-02T08:51:08;2.00;;;1.40;;
60610;SDS011;46439;51.164;13.572;2023-07-02T08:53:36;1.60;;;1.50;;
60610;SDS011;46439;51.164;13.572;2023-07-02T08:56:05;2.00;;;1.20;;
60610;SDS011;46439;51.164;13.572;2023-07-02T08:58:34;2.00;;;1.20;;
60610;SDS011;46439;51.164;13.572;2023-07-02T09:01:05;1.40;;;1.30;;
60610;SDS011;46439;51.164;13.572;2023-07-02T09:03:36;1.40;;;1.30;;
60610;SDS011;46439;51.164;13.572;2023-07-02T09:06:06;1.70;;;1.50;;
60610;SDS011;46439;51.164;13.572;2023-07-02T09:08:36;1.40;;;1.20;;
60610;SDS011;46439;51.164;13.572;2023-07-02T09:11:08;1.40;;;1.30;;
60610;SDS011;46439;51.164;13.572;2023-07-02T09:13:44;2.60;;;1.40;;
60610;SDS011;46439;51.164;13.572;2023-07-02T09:16:24;1.20;;;1.10;;
60610;SDS011;46439;51.164;13.572;2023-07-02T09:19:00;1.30;;;1.20;;
60610;SDS011;46439;51.164;13.572;2023-07-02T09:21:39;1.40;;;1.30;;
60610;SDS011;46439;51.164;13.572;2023-07-02T09:24:15;1.40;;;1.20;;
60610;SDS011;46439;51.164;13.572;2023-07-02T09:26:46;1.50;;;1.30;;
60610;SDS011;46439;51.164;13.572;2023-07-02T09:29:18;1.30;;;1.20;;
60610;SDS011;46439;51.164;13.572;2023-07-02T09:31:48;1.80;;;1.30;;
60610;SDS011;46439;51.164;13.572;2023-07-02T09:34:17;1.50;;;1.30;;
60610;SDS011;46439;51.164;13.572;2023-07-02T09:36:46;2.30;;;1.40;;
60610;SDS011;46439;51.164;13.572;2023-07-02T09:39:18;1.30;;;1.30;;
60610;SDS011;46439;51.164;13.572;2023-07-02T09:41:51;1.40;;;1.30;;
60610;SDS011;46439;51.164;13.572;2023-07-02T09:44:21;1.50;;;1.40;;
60610;SDS011;46439;51.164;13.572;2023-07-02T09:46:53;1.40;;;1.30;;
60610;SDS011;46439;51.164;13.572;2023-07-02T09:49:27;1.10;;;1.10;;
60610;SDS011;46439;51.164;13.572;2023-07-02T09:52:00;1.60;;;1.50;;
60610;SDS011;46439;51.164;13.572;2023-07-02T09:54:30;1.30;;;1.20;;
60610;SDS011;46439;51.164;13.572;2023-07-02T09:56:59;1.30;;;1.20;;
60610;SDS011;46439;51.164;13.572;2023-07-02T09:59:29;2.10;;;1.30;;
60610;SDS011;46439;51.164;13.572;2023-07-02T10:01:58;1.30;;;1.10;;
60610;SDS011;46439;51.164;13.572;2023-07-02T10:04:27;2.10;;;1.40;;
60610;SDS011;46439;51.164;13.572;2023-07-02T10:07:06;1.40;;;1.30;;
60610;SDS011;46439;51.164;13.572;2023-07-02T10:09:35;2.00;;;1.30;;
60610;SDS011;46439;51.164;13.572;2023-07-02T10:12:16;2.50;;;1.40;;
60610;SDS011;46439;51.164;13.572;2023-07-02T10:14:46;2.40;;;1.40;;
60610;SDS011;46439;51.164;13.572;2023-07-02T10:17:28;1.50;;;1.40;;
60610;SDS011;46439;51.164;13.572;2023-07-02T10:19:59;1.50;;;1.40;;
60610;SDS011;46439;51.164;13.572;2023-07-02T10:22:44;1.40;;;1.30;;
60610;SDS011;46439;51.164;13.572;2023-07-02T10:25:23;1.40;;;1.30;;
60610;SDS011;46439;51.164;13.572;2023-07-02T10:27:53;1.50;;;1.40;;
60610;SDS011;46439;51.164;13.572;2023-07-02T10:30:31;2.20;;;1.40;;
60610;SDS011;46439;51.164;13.572;2023-07-02T10:33:10;1.30;;;1.20;;
60610;SDS011;46439;51.164;13.572;2023-07-02T10:35:40;1.40;;;1.30;;
60610;SDS011;46439;51.164;13.572;2023-07-02T10:38:14;1.40;;;1.30;;
60610;SDS011;46439;51.164;13.572;2023-07-02T10:40:45;1.70;;;1.30;;
60610;SDS011;46439;51.164;13.572;2023-07-02T10:43:25;1.40;;;1.40;;
60610;SDS011;46439;51.164;13.572;2023-07-02T10:45:54;1.30;;;1.20;;
60610;SDS011;46439;51.164;13.572;2023-07-02T10:48:24;1.30;;;1.20;;
60610;SDS011;46439;51.164;13.572;2023-07-02T10:50:52;1.40;;;1.30;;
60610;SDS011;46439;51.164;13.572;2023-07-02T10:53:21;1.50;;;1.40;;
60610;SDS011;46439;51.164;13.572;2023-07-02T10:55:55;1.30;;;1.30;;
60610;SDS011;46439;51.164;13.572;2023-07-02T10:58:23;3.00;;;1.40;;
60610;SDS011;46439;51.164;13.572;2023-07-02T11:00:52;1.10;;;1.10;;
60610;SDS011;46439;51.164;13.572;2023-07-02T11:03:21;3.10;;;1.30;;
60610;SDS011;46439;51.164;13.572;2023-07-02T11:05:52;1.90;;;1.30;;
60610;SDS011;46439;51.164;13.572;2023-07-02T11:08:21;1.30;;;1.20;;
60610;SDS011;46439;51.164;13.572;2023-07-02T11:10:51;2.10;;;1.20;;
60610;SDS011;46439;51.164;13.572;2023-07-02T11:13:33;3.70;;;1.30;;
60610;SDS011;46439;51.164;13.572;2023-07-02T11:16:18;1.30;;;1.20;;
60610;SDS011;46439;51.164;13.572;2023-07-02T11:18:49;2.50;;;1.40;;
60610;SDS011;46439;51.164;13.572;2023-07-02T11:21:18;2.00;;;1.40;;
60610;SDS011;46439;51.164;13.572;2023-07-02T11:23:47;2.40;;;1.30;;
60610;SDS011;46439;51.164;13.572;2023-07-02T11:26:15;1.40;;;1.30;;
60610;SDS011;46439;51.164;13.572;2023-07-02T11:28:52;1.50;;;1.30;;
60610;SDS011;46439;51.164;13.572;2023-07-02T11:31:27;1.50;;;1.30;;
60610;SDS011;46439;51.164;13.572;2023-07-02T11:33:55;2.10;;;1.50;;
60610;SDS011;46439;51.164;13.572;2023-07-02T11:36:24;1.50;;;1.40;;
60610;SDS011;46439;51.164;13.572;2023-07-02T11:38:54;4.50;;;1.50;;
60610;SDS011;46439;51.164;13.572;2023-07-02T11:41:23;4.30;;;1.40;;
60610;SDS011;46439;51.164;13.572;2023-07-02T11:43:51;4.70;;;1.50;;
60610;SDS011;46439;51.164;13.572;2023-07-02T11:46:20;2.00;;;1.60;;
60610;SDS011;46439;51.164;13.572;2023-07-02T11:48:48;2.20;;;1.50;;
60610;SDS011;46439;51.164;13.572;2023-07-02T11:51:17;4.30;;;1.80;;
60610;SDS011;46439;51.164;13.572;2023-07-02T11:53:45;3.70;;;1.60;;
60610;SDS011;46439;51.164;13.572;2023-07-02T11:56:14;2.50;;;1.60;;
60610;SDS011;46439;51.164;13.572;2023-07-02T11:58:42;5.10;;;1.50;;
60610;SDS011;46439;51.164;13.572;2023-07-02T12:01:11;4.30;;;1.50;;
60610;SDS011;46439;51.164;13.572;2023-07-02T12:03:39;3.20;;;1.60;;
60610;SDS011;46439;51.164;13.572;2023-07-02T12:06:08;2.30;;;1.70;;
60610;SDS011;46439;51.164;13.572;2023-07-02T12:08:37;3.80;;;1.60;;
60610;SDS011;46439;51.164;13.572;2023-07-02T12:11:05;2.60;;;1.50;;
60610;SDS011;46439;51.164;13.572;2023-07-02T12:13:34;2.40;;;1.80;;
60610;SDS011;46439;51.164;13.572;2023-07-02T12:16:03;3.30;;;1.70;;
60610;SDS011;46439;51.164;13.572;2023-07-02T12:18:32;2.80;;;1.80;;
60610;SDS011;46439;51.164;13.572;2023-07-02T12:21:00;5.30;;;1.70;;
60610;SDS011;46439;51.164;13.572;2023-07-02T12:23:29;5.50;;;1.80;;
60610;SDS011;46439;51.164;13.572;2023-07-02T12:25:58;3.30;;;1.70;;
60610;SDS011;46439;51.164;13.572;2023-07-02T12:28:26;2.90;;;1.70;;
60610;SDS011;46439;51.164;13.572;2023-07-02T12:30:55;4.40;;;1.70;;
60610;SDS011;46439;51.164;13.572;2023-07-02T12:33:23;1.70;;;1.60;;
60610;SDS011;46439;51.164;13.572;2023-07-02T12:35:52;2.60;;;1.70;;
60610;SDS011;46439;51.164;13.572;2023-07-02T12:38:20;2.50;;;1.90;;
60610;SDS011;46439;51.164;13.572;2023-07-02T12:40:49;3.10;;;2.10;;
60610;SDS011;46439;51.164;13.572;2023-07-02T12:43:17;2.80;;;2.00;;
60610;SDS011;46439;51.164;13.572;2023-07-02T12:45:46;3.70;;;2.00;;
60610;SDS011;46439;51.164;13.572;2023-07-02T12:48:15;7.20;;;2.20;;
60610;SDS011;46439;51.164;13.572;2023-07-02T12:50:45;4.70;;;2.20;;
60610;SDS011;46439;51.164;13.572;2023-07-02T12:53:22;4.90;;;2.20;;
60610;SDS011;46439;51.164;13.572;2023-07-02T12:55:50;3.60;;;2.10;;
60610;SDS011;46439;51.164;13.572;2023-07-02T12:58:19;3.20;;;2.20;;
60610;SDS011;46439;51.164;13.572;2023-07-02T13:00:47;2.20;;;2.00;;
60610;SDS011;46439;51.164;13.572;2023-07-02T13:03:16;4.60;;;2.30;;
60610;SDS011;46439;51.164;13.572;2023-07-02T13:05:45;3.00;;;2.00;;
60610;SDS011;46439;51.164;13.572;2023-07-02T13:08:14;7.80;;;2.20;;
60610;SDS011;46439;51.164;13.572;2023-07-02T13:10:43;3.30;;;2.50;;
60610;SDS011;46439;51.164;13.572;2023-07-02T13:13:11;5.30;;;2.10;;
60610;SDS011;46439;51.164;13.572;2023-07-02T13:15:40;4.10;;;2.50;;
60610;SDS011;46439;51.164;13.572;2023-07-02T13:18:08;5.20;;;2.40;;
60610;SDS011;46439;51.164;13.572;2023-07-02T13:20:37;4.20;;;2.50;;
60610;SDS011;46439;51.164;13.572;2023-07-02T13:23:05;3.40;;;2.40;;
60610;SDS011;46439;51.164;13.572;2023-07-02T13:25:34;3.40;;;2.10;;
60610;SDS011;46439;51.164;13.572;2023-07-02T13:28:03;3.50;;;2.20;;
60610;SDS011;46439;51.164;13.572;2023-07-02T13:30:31;3.30;;;2.10;;
60610;SDS011;46439;51.164;13.572;2023-07-02T13:33:00;4.90;;;2.10;;
60610;SDS011;46439;51.164;13.572;2023-07-02T13:35:29;2.50;;;2.10;;
60610;SDS011;46439;51.164;13.572;2023-07-02T13:37:58;3.70;;;2.20;;
60610;SDS011;46439;51.164;13.572;2023-07-02T13:40:26;3.50;;;2.40;;
60610;SDS011;46439;51.164;13.572;2023-07-02T13:42:55;2.20;;;2.00;;
60610;SDS011;46439;51.164;13.572;2023-07-02T13:45:23;4.00;;;2.30;;
60610;SDS011;46439;51.164;13.572;2023-07-02T13:47:52;5.50;;;2.00;;
60610;SDS011;46439;51.164;13.572;2023-07-02T13:50:21;3.70;;;2.40;;
60610;SDS011;46439;51.164;13.572;2023-07-02T13:52:49;2.90;;;1.90;;
60610;SDS011;46439;51.164;13.572;2023-07-02T13:55:18;2.70;;;1.80;;
60610;SDS011;46439;51.164;13.572;2023-07-02T13:57:52;3.10;;;2.00;;
60610;SDS011;46439;51.164;13.572;2023-07-02T14:00:23;2.70;;;2.40;;
60610;SDS011;46439;51.164;13.572;2023-07-02T14:02:52;4.10;;;2.30;;
60610;SDS011;46439;51.164;13.572;2023-07-02T14:05:21;4.10;;;2.50;;
60610;SDS011;46439;51.164;13.572;2023-07-02T14:07:50;2.50;;;2.30;;
60610;SDS011;46439;51.164;13.572;2023-07-02T14:10:19;3.30;;;2.80;;
60610;SDS011;46439;51.164;13.572;2023-07-02T14:12:48;4.50;;;2.60;;
60610;SDS011;46439;51.164;13.572;2023-07-02T14:15:16;4.90;;;2.70;;
60610;SDS011;46439;51.164;13.572;2023-07-02T14:17:45;5.10;;;2.70;;
60610;SDS011;46439;51.164;13.572;2023-07-02T14:20:13;6.10;;;2.80;;
60610;SDS011;46439;51.164;13.572;2023-07-02T14:22:42;4.50;;;2.70;;
60610;SDS011;46439;51.164;13.572;2023-07-02T14:25:11;4.20;;;2.80;;
60610;SDS011;46439;51.164;13.572;2023-07-02T14:27:40;3.00;;;2.70;;
60610;SDS011;46439;51.164;13.572;2023-07-02T14:30:09;6.80;;;3.10;;
60610;SDS011;46439;51.164;13.572;2023-07-02T14:32:39;4.20;;;2.80;;
60610;SDS011;46439;51.164;13.572;2023-07-02T14:35:10;7.40;;;3.10;;
60610;SDS011;46439;51.164;13.572;2023-07-02T14:37:38;4.20;;;2.90;;
60610;SDS011;46439;51.164;13.572;2023-07-02T14:40:08;4.10;;;2.80;;
60610;SDS011;46439;51.164;13.572;2023-07-02T14:42:37;4.90;;;2.70;;
60610;SDS011;46439;51.164;13.572;2023-07-02T14:45:07;4.70;;;2.80;;
60610;SDS011;46439;51.164;13.572;2023-07-02T14:47:36;4.70;;;2.80;;